You are listening to:
KCLT Approach (Arrival) - Charlotte, North Carolina, United States

KCLT 060852Z 00000KT 10SM FEW004 BKN250 22/21 A3003 RMK SLP157 T02220211 56007

If stream doesn't start automatically press the play button
If stream stops then reload player then press play